Latest Weather Observations for Point Perpendicular

IDN60801

Issued at 5:02 am EDT Thursday 19 January 2017 (issued every 30 minutes, with the page automatically refreshed every 10 minutes)

About weather observations | Map of weather stations | Latest weather observations for NSW | Other Formats
Station Details ID: 068151 Name: POINT PERPENDICULAR AWS Lat: -35.09 Lon: 150.80 Height: 85.0 m
Data from the previous 72 hours. | See also: Recent months at Point Perpendicular
Date/Time
EDT
Temp
°C
App
Temp
°C
Dew
Point
°C
Rel
Hum
%
Delta-T
°C
Wind Press
QNH
hPa
Press
MSL
hPa
Rain since
9am
mm
Dir  Spd
km/h
Gust
km/h
Spd
kts
Gust
kts
19/05:00am 18.7 17.4 12.5 67 3.5 SE 11 20 6 11 1014.8 1014.5 0.0
19/04:30am 19.2 18.5 13.2 68 3.4 ESE 9 17 5 9 1014.7 1014.4 0.0
19/04:00am 19.3 18.2 13.0 67 3.6 SE 11 20 6 11 1014.7 1014.4 0.0
19/03:30am 19.3 17.2 12.3 64 3.9 SE 15 24 8 13 1014.8 1014.5 0.0
19/03:00am 19.8 18.1 12.3 62 4.2 SSE 13 20 7 11 1015.1 1014.8 0.0
19/02:30am 19.8 17.5 11.8 60 4.4 SSE 15 24 8 13 1015.4 1015.1 0.0
19/02:00am 19.7 16.8 12.2 62 4.2 SSE 19 30 10 16 1015.9 1015.6 0.0
19/01:30am 19.6 17.0 12.1 62 4.2 S 17 28 9 15 1016.0 1015.7 0.0
19/01:00am 19.7 17.1 13.9 69 3.3 SSE 20 41 11 22 1016.4 1016.1 0.0
19/12:30am 20.1 17.7 13.8 67 3.6 SSE 19 32 10 17 1016.1 1015.8 0.0
19/12:00am 20.3 17.5 13.3 64 4.0 SSE 20 33 11 18 1016.0 1015.7 0.0
 
Date/Time
EDT
Temp
°C
App
Temp
°C
Dew
Point
°C
Rel
Hum
%
Delta-T
°C
Wind Press
QNH
hPa
Press
MSL
hPa
Rain since
9am
mm
Dir  Spd
km/h
Gust
km/h
Spd
kts
Gust
kts
18/11:30pm 20.3 16.7 13.0 63 4.2 S 24 43 13 23 1016.2 1015.9 0.0
18/11:00pm 20.2 16.9 12.9 63 4.1 SSE 22 35 12 19 1015.8 1015.5 0.0
18/10:30pm 20.4 17.1 14.1 67 3.7 SSE 24 37 13 20 1015.7 1015.4 0.0
18/10:00pm 20.4 16.4 12.9 62 4.3 S 26 43 14 23 1015.3 1015.0 0.0
18/09:30pm 20.4 16.8 14.1 67 3.7 S 26 37 14 20 1014.8 1014.5 0.0
18/09:00pm 20.6 16.7 14.5 68 3.6 S 28 41 15 22 1013.9 1013.5 0.0
18/08:30pm 20.7 18.0 15.5 72 3.1 SSE 24 41 13 22 1013.4 1013.0 0.0
18/08:15pm 20.5 17.0 15.5 73 3.0 S 28 48 15 26 1013.2 1012.8 0.0
18/08:00pm 20.3 18.1 15.9 76 2.6 S 22 37 12 20 1012.9 1012.5 0.0
18/07:30pm 20.6 17.7 16.2 76 2.7 SSE 26 43 14 23 1012.1 1011.7 0.0
18/07:00pm 20.6 17.4 16.2 76 2.7 S 28 43 15 23 1011.6 1011.2 0.0
18/06:30pm 20.5 17.4 16.5 78 2.4 S 28 43 15 23 1010.9 1010.6 0.0
18/06:00pm 20.5 17.7 16.3 77 2.5 S 26 43 14 23 1010.3 1010.0 0.0
18/05:30pm 20.6 17.2 16.8 79 2.3 S 30 48 16 26 1009.6 1009.3 0.0
18/05:23pm 20.8 17.5 17.0 79 2.3 S 30 48 16 26 1009.8 1009.5 0.0
18/05:00pm 20.8 17.9 17.0 79 2.3 S 28 43 15 23 1009.3 1009.0 0.0
18/04:30pm 21.0 17.6 16.8 77 2.6 S 30 44 16 24 1009.2 1008.9 0.0
18/04:01pm 21.5 19.0 18.1 81 2.1 S 28 46 15 25 1008.9 1008.6 0.0
18/04:00pm 21.5 18.9 17.9 80 2.2 S 28 44 15 24 1009.0 1008.7 0.0
18/03:30pm 22.0 18.9 17.6 76 2.7 S 30 44 16 24 1008.9 1008.6 0.0
18/03:00pm 22.7 20.6 18.9 79 2.4 S 28 43 15 23 1008.3 1008.0 0.0
18/02:57pm 22.8 20.7 19.0 79 2.4 S 28 46 15 25 1008.5 1008.2 0.0
18/02:30pm 23.2 20.7 18.9 77 2.7 S 30 43 16 23 1008.2 1007.9 0.0
18/02:00pm 24.2 22.1 19.7 76 2.9 S 30 44 16 24 1007.8 1007.5 0.0
18/01:38pm 25.4 23.5 19.3 69 3.9 S 28 46 15 25 1007.5 1007.2 0.0
18/01:30pm 26.0 24.8 19.2 66 4.4 S 24 33 13 18 1007.7 1007.4 0.0
18/01:00pm 26.7 25.9 19.3 64 4.8 SSE 22 33 12 18 1007.4 1007.1 0.0
18/12:30pm 26.0 25.3 18.7 64 4.7 SSE 20 28 11 15 1007.0 1006.7 0.0
18/12:00pm 26.0 26.3 19.6 68 4.2 S 17 26 9 14 1007.0 1006.7 0.0
18/11:30am 25.7 25.9 19.3 67 4.1 S 17 24 9 13 1006.8 1006.5 0.0
18/11:00am 25.4 24.7 18.6 66 4.3 SSW 20 30 11 16 1007.0 1006.7 0.0
18/10:30am 25.1 23.9 18.5 67 4.2 SSW 22 30 12 16 1007.0 1006.7 0.0
18/10:00am 25.0 23.9 18.7 68 4.0 SSW 22 30 12 16 1006.9 1006.6 0.0
18/09:30am 24.4 23.4 18.8 71 3.6 SSW 22 32 12 17 1006.8 1006.5 0.0
18/09:00am 24.4 21.9 18.8 71 3.6 SSW 30 44 16 24 1007.2 1006.9 1.0
18/08:30am 24.2 21.2 18.6 71 3.6 SSW 32 46 17 25 1007.1 1006.8 1.0
18/08:00am 24.0 22.2 21.1 84 1.9 SSW 32 50 17 27 1006.9 1006.6 1.0
18/07:45am 23.7 21.7 21.2 86 1.6 SSW 33 54 18 29 1006.3 1006.0 1.0
18/07:30am 23.7 23.6 22.9 95 0.5 SW 28 44 15 24 1006.2 1005.9 1.0
18/07:00am 23.4 24.3 23.4 100 0.0 SSW 24 33 13 18 1005.5 1005.2 1.0
18/06:30am 23.3 22.7 23.3 100 0.0 SSW 32 52 17 28 1004.6 1004.3 1.0
18/06:22am 23.7 24.1 23.7 100 0.0 SSW 28 46 15 25 1004.1 1003.8 1.0
18/06:00am 26.7 30.0 20.8 70 3.9 W 4 7 2 4 1003.1 1002.7 1.0
18/05:30am 25.0 29.1 22.9 88 1.4 WSW 6 11 3 6 1002.7 1002.3 1.0
18/05:00am 24.6 28.6 22.7 89 1.3 WSW 6 9 3 5 1002.6 1002.2 1.0
18/04:30am 23.7 27.2 22.1 91 1.1 WSW 7 11 4 6 1002.6 1002.2 1.0
18/04:00am 23.9 27.6 21.4 86 1.7 WNW 4 6 2 3 1002.4 1002.0 1.0
18/03:30am 26.4 27.8 20.3 69 4.0 NW 13 15 7 8 1002.6 1002.2 1.0
18/03:00am 26.3 28.5 20.4 70 3.9 NNW 9 11 5 6 1003.0 1002.6 1.0
18/02:30am 26.2 27.5 20.8 72 3.6 N 15 19 8 10 1003.2 1002.8 1.0
18/02:00am 25.2 25.8 21.3 79 2.6 N 20 24 11 13 1003.5 1003.1 1.0
18/01:30am 24.7 26.0 21.6 83 2.1 N 17 22 9 12 1004.0 1003.7 1.0
18/01:00am 25.5 26.0 21.2 77 2.9 N 20 26 11 14 1004.5 1004.2 1.0
18/12:30am 25.7 25.9 20.5 73 3.4 NNE 20 26 11 14 1004.9 1004.6 1.0
18/12:00am 26.5 27.0 20.8 71 3.8 NNE 19 24 10 13 1005.3 1005.0 1.0
 
Date/Time
EDT
Temp
°C
App
Temp
°C
Dew
Point
°C
Rel
Hum
%
Delta-T
°C
Wind Press
QNH
hPa
Press
MSL
hPa
Rain since
9am
mm
Dir  Spd
km/h
Gust
km/h
Spd
kts
Gust
kts
17/11:30pm 26.8 27.3 21.1 71 3.8 NNE 20 24 11 13 1005.6 1005.3 1.0
17/11:00pm 25.0 26.2 22.1 84 1.9 NNE 19 22 10 12 1006.1 1005.8 1.0
17/10:30pm 24.5 26.1 22.2 87 1.5 NNW 17 30 9 16 1006.8 1006.5 0.8
17/10:00pm 25.9 26.4 21.1 75 3.2 N 20 28 11 15 1006.7 1006.4 0.0
17/09:30pm 26.5 25.7 20.8 71 3.8 NNE 26 37 14 20 1006.8 1006.5 0.0
17/09:00pm 28.7 26.9 19.6 58 6.0 NNE 28 46 15 25 1006.7 1006.4 0.0
17/08:58pm 28.7 26.9 19.6 58 5.9 NNE 28 46 15 25 1006.7 1006.4 0.0
17/08:30pm 30.2 28.0 18.6 49 7.5 NNE 28 41 15 22 1006.7 1006.4 0.0
17/08:00pm 30.3 28.7 19.3 51 7.2 NNE 26 37 14 20 1006.5 1006.2 0.0
17/07:30pm 28.8 27.1 20.5 61 5.5 N 30 41 16 22 1006.5 1006.2 0.0
17/07:00pm 26.5 24.7 21.5 74 3.3 N 33 52 18 28 1006.6 1006.3 0.0
17/06:58pm 26.9 25.2 21.4 72 3.7 N 32 52 17 28 1006.5 1006.2 0.0
17/06:30pm 27.9 27.2 21.0 66 4.6 NNE 26 41 14 22 1006.0 1005.7 0.0
17/06:00pm 29.7 28.6 21.1 60 5.8 NNE 28 44 15 24 1006.0 1005.7 0.0
17/05:30pm 30.0 29.5 20.8 57 6.1 NNE 24 33 13 18 1006.2 1005.9 0.0
17/05:00pm 29.3 27.6 20.5 59 5.8 NNE 30 41 16 22 1006.3 1006.0 0.0
17/04:30pm 29.2 27.9 20.6 59 5.7 NNE 28 39 15 21 1006.5 1006.2 0.0
17/04:00pm 29.3 28.3 20.5 59 5.8 NNE 26 37 14 20 1006.9 1006.6 0.0
17/03:30pm 31.2 29.8 20.5 53 7.1 NNE 28 41 15 22 1007.2 1006.9 0.0
17/03:00pm 30.9 29.5 20.5 54 6.9 NNE 28 37 15 20 1007.4 1007.1 0.0
17/02:30pm 31.0 30.2 20.9 55 6.8 NNE 26 35 14 19 1007.9 1007.6 0.0
17/02:00pm 31.6 31.1 20.8 52 7.2 NNE 24 32 13 17 1008.4 1008.1 0.0
17/01:30pm 32.2 32.4 20.5 50 7.8 NNE 20 28 11 15 1008.8 1008.5 0.0
17/01:00pm 30.7 29.8 20.6 54 6.7 NNE 26 35 14 19 1009.2 1008.9 0.0
17/12:30pm 30.9 30.2 20.2 53 7.1 NNE 24 35 13 19 1009.3 1009.0 0.0
17/12:00pm 31.4 31.4 21.0 54 7.0 NNE 22 32 12 17 1009.7 1009.4 0.0
17/11:30am 30.5 28.8 18.9 50 7.5 N 26 33 14 18 1010.2 1009.9 0.0
17/11:00am 30.8 29.8 18.8 48 7.8 NNE 22 28 12 15 1010.6 1010.3 0.0
17/10:30am 30.2 29.5 18.6 49 7.5 NNE 20 26 11 14 1011.0 1010.7 0.0
17/10:00am 28.1 27.8 19.1 58 5.8 N 19 24 10 13 1011.5 1011.1 0.0
17/09:30am 26.4 26.8 20.9 72 3.6 N 20 26 11 14 1011.9 1011.5 0.0
17/09:00am 24.4 23.5 20.7 80 2.4 N 26 35 14 19 1012.3 1011.9 0.0
17/08:30am 23.5 22.9 20.6 84 1.9 N 24 33 13 18 1012.4 1012.0 0.0
17/08:00am 22.6 22.0 21.2 92 0.9 N 26 41 14 22 1012.6 1012.2 0.0
17/07:30am 21.7 21.6 21.5 99 0.1 N 24 35 13 19 1012.5 1012.1 0.0
17/07:00am 21.1 20.4 21.1 100 0.0 N 26 35 14 19 1012.3 1011.9 0.0
17/06:30am 20.7 21.1 20.7 100 0.0 N 19 24 10 13 1012.2 1011.8 0.0
17/06:00am 20.6 20.0 20.6 100 0.0 N 24 32 13 17 1011.9 1011.5 0.0
17/05:30am 20.8 20.7 20.8 100 0.0 NNE 22 30 12 16 1011.7 1011.3 0.0
17/05:00am 20.7 21.5 20.7 100 0.0 N 17 24 9 13 1011.8 1011.4 0.0
17/04:30am 20.8 20.7 20.8 100 0.0 N 22 32 12 17 1011.8 1011.4 0.0
17/04:00am 20.9 20.5 20.9 100 0.0 NNE 24 32 13 17 1011.7 1011.3 0.0
17/03:30am 21.0 20.6 21.0 100 0.0 NNE 24 32 13 17 1012.0 1011.6 0.0
17/03:00am 21.0 20.6 21.0 100 0.0 NNE 24 35 13 19 1012.5 1012.1 0.0
17/02:30am 21.0 20.3 21.0 100 0.0 N 26 37 14 20 1012.7 1012.3 0.0
17/02:00am 21.1 20.7 20.9 99 0.1 NNE 24 32 13 17 1013.2 1012.8 0.0
17/01:30am 21.2 20.6 20.4 95 0.5 NNE 24 33 13 18 1013.5 1013.1 0.0
17/01:00am 21.3 20.6 20.3 94 0.6 N 24 35 13 19 1013.9 1013.5 0.0
17/12:30am 21.4 19.9 20.2 93 0.8 NNE 28 41 15 22 1014.2 1013.9 0.0
17/12:00am 21.7 19.6 19.8 89 1.2 NNE 30 39 16 21 1014.2 1013.9 0.0
 
Date/Time
EDT
Temp
°C
App
Temp
°C
Dew
Point
°C
Rel
Hum
%
Delta-T
°C
Wind Press
QNH
hPa
Press
MSL
hPa
Rain since
9am
mm
Dir  Spd
km/h
Gust
km/h
Spd
kts
Gust
kts
16/11:30pm 21.8 19.8 19.9 89 1.2 NNE 30 43 16 23 1014.4 1014.1 0.0
16/11:00pm 21.9 19.8 19.8 88 1.3 NNE 30 43 16 23 1014.5 1014.2 0.0
16/10:30pm 21.9 19.7 20.4 91 1.0 NNE 32 43 17 23 1014.4 1014.1 0.0
16/10:00pm 22.0 20.6 20.5 91 1.0 N 28 41 15 22 1014.4 1014.1 0.0
16/09:30pm 22.1 20.5 20.7 92 0.9 NNE 30 41 16 22 1014.2 1013.9 0.0
16/09:00pm 22.2 20.2 20.8 92 0.9 NNE 32 48 17 26 1013.8 1013.4 0.0
16/08:51pm 22.3 20.8 20.9 92 0.9 NNE 30 48 16 26 1013.8 1013.4 0.0
16/08:30pm 22.4 20.3 20.5 89 1.2 NNE 32 48 17 26 1013.7 1013.3 0.0
16/08:09pm 22.6 21.0 20.7 89 1.2 NNE 30 48 16 26 1013.4 1013.0 0.0
16/08:00pm 22.7 20.4 20.6 88 1.4 NNE 33 50 18 27 1013.3 1012.9 0.0
16/07:31pm 23.2 20.5 20.5 85 1.8 NNE 35 54 19 29 1012.9 1012.5 0.0
16/07:30pm 23.2 20.9 20.5 85 1.8 NNE 33 48 18 26 1012.9 1012.5 0.0
16/07:14pm 23.5 20.9 20.6 84 1.9 NNE 35 54 19 29 1012.8 1012.4 0.0
16/07:00pm 23.7 20.3 20.6 83 2.0 NNE 39 56 21 30 1012.7 1012.3 0.0
16/06:30pm 24.2 21.2 20.7 81 2.3 NNE 37 52 20 28 1012.6 1012.2 0.0
16/06:00pm 24.5 21.9 20.6 79 2.6 NNE 35 50 19 27 1012.5 1012.1 0.0
16/05:30pm 25.0 22.4 20.7 77 2.8 NNE 35 50 19 27 1012.4 1012.0 0.0
16/05:00pm 25.0 22.7 20.5 76 2.9 NNE 33 56 18 30 1012.5 1012.1 0.0
16/04:30pm 26.1 23.4 20.4 71 3.7 NNE 35 54 19 29 1012.6 1012.2 0.0
16/04:00pm 25.6 21.8 19.7 70 3.8 NNE 39 52 21 28 1012.9 1012.5 0.0
16/03:30pm 26.2 22.7 20.3 70 3.9 NNE 39 52 21 28 1012.9 1012.5 0.0
16/03:07pm 26.3 22.9 19.9 68 4.2 NNE 37 56 20 30 1013.0 1012.6 0.0
16/03:00pm 26.2 22.4 20.5 71 3.7 NNE 41 54 22 29 1013.0 1012.6 0.0
16/02:30pm 25.8 22.1 19.9 70 3.8 NNE 39 50 21 27 1013.2 1012.8 0.0
16/02:00pm 25.8 23.2 19.9 70 3.8 NNE 33 48 18 26 1013.6 1013.2 0.0
16/01:30pm 25.7 22.8 20.0 71 3.7 NNE 35 48 19 26 1014.0 1013.6 0.0
16/01:00pm 25.6 23.1 19.7 70 3.8 NNE 32 46 17 25 1014.3 1014.0 0.0
16/12:30pm 26.3 23.7 19.4 66 4.5 NNE 32 44 17 24 1014.5 1014.2 0.0
16/12:00pm 26.0 24.0 18.4 63 4.8 NNE 26 39 14 21 1015.0 1014.7 0.0
16/11:30am 26.3 25.5 19.2 65 4.6 NNE 22 33 12 18 1015.4 1015.1 0.0
16/11:00am 25.8 25.4 19.4 67 4.1 NNE 20 30 11 16 1015.9 1015.6 0.0
16/10:30am 24.6 24.0 18.8 70 3.7 NNE 20 30 11 16 1016.2 1015.9 0.0
16/10:00am 24.2 24.7 19.3 74 3.1 N 15 28 8 15 1016.6 1016.3 0.0
16/09:30am 23.6 23.6 19.7 79 2.5 N 19 26 10 14 1016.6 1016.3 0.0
16/09:00am 22.4 22.7 19.6 84 1.8 N 17 24 9 13 1016.8 1016.5 0.6
16/08:30am 21.8 22.7 20.1 90 1.1 N 15 20 8 11 1016.8 1016.5 0.6
16/08:00am 20.5 23.1 20.5 100 0.0 N 7 15 4 8 1016.7 1016.4 0.6
16/07:30am 19.3 22.3 19.3 100 0.0 WNW 2 4 1 2 1016.7 1016.4 0.6
16/07:00am 19.3 22.3 19.3 100 0.0 WNW 2 4 1 2 1016.5 1016.2 0.6
16/06:30am 19.0 21.9 19.0 100 0.0 WNW 2 4 1 2 1016.3 1016.0 0.6
16/06:00am 19.1 21.3 19.1 100 0.0 WNW 6 9 3 5 1016.0 1015.7 0.6
16/05:30am 19.1 21.6 19.1 100 0.0 WNW 4 7 2 4 1016.0 1015.7 0.6

Other Formats:

Comma delimited format used in spreadsheet applications
http://www.bom.gov.au/fwo/IDN60801/IDN60801.95940.axf

JavaScript Object Notation format (JSON) in row-major order
http://www.bom.gov.au/fwo/IDN60801/IDN60801.95940.json